Time;durP1;ratioP1;P1;durP2;ratioP2;P2;SDS_P1;SDS_P2;PMS_P1;PMS_P2;Temp;Humidity;BMP_temperature;BMP_pressure;BME280_temperature;BME280_humidity;BME280_pressure;Samples;Min_cycle;Max_cycle;Signal;HPM_P1;HPM_P2
2021/08/14 00:01:04;;;;;;;11.95;8.15;;;;;;;;;;5014132;28;20473;-75
2021/08/14 00:03:30;;;;;;;8.32;6.95;;;;;;;;;;5013636;28;20029;-74
2021/08/14 00:05:56;;;;;;;12.77;7.82;;;;;;;;;;4992007;28;20039;-75
2021/08/14 00:08:21;;;;;;;9.82;7.20;;;;;;;;;;4988837;28;20033;-74
2021/08/14 00:10:47;;;;;;;10.38;7.10;;;;;;;;;;5013875;28;20458;-74
2021/08/14 00:13:12;;;;;;;13.15;8.75;;;;;;;;;;5014257;28;20029;-75
2021/08/14 00:15:38;;;;;;;10.15;7.05;;;;;;;;;;5013939;28;20033;-74
2021/08/14 00:18:03;;;;;;;9.18;6.93;;;;;;;;;;5013460;28;20104;-74
2021/08/14 00:20:28;;;;;;;11.50;7.88;;;;;;;;;;5013702;28;20026;-75
2021/08/14 00:22:54;;;;;;;8.77;7.35;;;;;;;;;;5012210;28;20030;-74
2021/08/14 00:25:19;;;;;;;132.55;14.25;;;;;;;;;;5013584;28;20026;-74
2021/08/14 00:27:45;;;;;;;36.08;11.77;;;;;;;;;;5013017;28;20033;-75
2021/08/14 00:30:11;;;;;;;13.95;9.88;;;;;;;;;;5012673;28;20555;-75
2021/08/14 00:32:36;;;;;;;12.13;9.02;;;;;;;;;;5013149;28;20037;-75
2021/08/14 00:35:02;;;;;;;10.68;8.55;;;;;;;;;;5013066;28;20040;-74
2021/08/14 00:37:28;;;;;;;11.68;9.02;;;;;;;;;;5013905;28;20037;-74
2021/08/14 00:39:53;;;;;;;10.50;8.80;;;;;;;;;;5010617;28;20038;-74
2021/08/14 00:42:19;;;;;;;12.00;9.05;;;;;;;;;;5012870;28;20628;-75
2021/08/14 00:44:44;;;;;;;11.07;8.38;;;;;;;;;;5012697;28;20025;-75
2021/08/14 00:47:10;;;;;;;64.07;10.77;;;;;;;;;;5013135;28;20033;-74
2021/08/14 00:49:35;;;;;;;12.25;7.03;;;;;;;;;;5012834;28;20374;-74
2021/08/14 00:52:02;;;;;;;9.40;5.72;;;;;;;;;;4989524;28;20394;-74
2021/08/14 00:54:27;;;;;;;9.45;5.57;;;;;;;;;;5012953;28;20081;-74
2021/08/14 00:56:55;;;;;;;8.23;5.60;;;;;;;;;;5012498;28;20513;-74
2021/08/14 00:59:20;;;;;;;9.90;5.90;;;;;;;;;;4995239;28;20104;-74
2021/08/14 01:01:46;;;;;;;8.32;5.97;;;;;;;;;;5011024;28;20505;-74
2021/08/14 01:04:12;;;;;;;8.27;5.93;;;;;;;;;;5011776;28;20118;-74
2021/08/14 01:06:38;;;;;;;7.28;5.45;;;;;;;;;;5012099;28;20224;-74
2021/08/14 01:09:04;;;;;;;11.50;5.95;;;;;;;;;;4994565;28;20175;-75
2021/08/14 01:11:30;;;;;;;16.80;6.57;;;;;;;;;;5012702;28;20450;-74
2021/08/14 01:13:56;;;;;;;6.03;5.05;;;;;;;;;;5012375;28;20038;-73
2021/08/14 01:16:24;;;;;;;9.93;5.15;;;;;;;;;;5012348;28;20030;-74
2021/08/14 01:18:49;;;;;;;9.70;5.22;;;;;;;;;;5012448;28;20026;-74
2021/08/14 01:21:23;;;;;;;6.63;5.03;;;;;;;;;;5012701;28;20501;-74
2021/08/14 01:23:49;;;;;;;7.88;4.90;;;;;;;;;;5008576;28;20077;-74
2021/08/14 01:26:16;;;;;;;7.68;4.88;;;;;;;;;;5011191;28;20033;-74
2021/08/14 01:28:42;;;;;;;7.80;5.00;;;;;;;;;;5012272;28;20160;-75
2021/08/14 01:31:10;;;;;;;184.63;16.45;;;;;;;;;;5011937;28;20041;-74
2021/08/14 01:33:38;;;;;;;98.82;14.88;;;;;;;;;;5012548;28;20022;-75
2021/08/14 01:36:05;;;;;;;335.25;41.40;;;;;;;;;;5011626;28;20124;-73
2021/08/14 01:38:31;;;;;;;282.35;32.80;;;;;;;;;;5011258;28;20030;-74
2021/08/14 01:40:56;;;;;;;6.68;4.35;;;;;;;;;;5011669;28;20029;-74
2021/08/14 01:43:22;;;;;;;7.82;4.22;;;;;;;;;;5011182;28;20493;-74
2021/08/14 01:45:48;;;;;;;6.50;4.25;;;;;;;;;;5011605;28;20492;-75
2021/08/14 01:48:15;;;;;;;8.82;4.22;;;;;;;;;;5011793;28;20496;-73
2021/08/14 01:50:40;;;;;;;5.10;3.58;;;;;;;;;;4994230;28;20350;-74
2021/08/14 01:53:06;;;;;;;7.85;3.97;;;;;;;;;;5011488;28;20485;-73
2021/08/14 01:55:31;;;;;;;6.25;3.20;;;;;;;;;;5011177;28;20401;-75
2021/08/14 01:57:57;;;;;;;6.65;3.35;;;;;;;;;;5011743;28;20029;-74
2021/08/14 02:00:23;;;;;;;5.38;3.10;;;;;;;;;;5011762;28;20026;-74
2021/08/14 02:02:48;;;;;;;4.93;3.30;;;;;;;;;;5011584;28;20465;-73
2021/08/14 02:05:14;;;;;;;6.03;3.30;;;;;;;;;;5011504;28;20111;-74
2021/08/14 02:07:39;;;;;;;5.70;3.05;;;;;;;;;;5011106;28;20026;-73
2021/08/14 02:10:06;;;;;;;5.88;3.30;;;;;;;;;;5011564;28;20381;-74
2021/08/14 02:12:31;;;;;;;6.40;3.20;;;;;;;;;;5011839;28;20415;-73
2021/08/14 02:14:56;;;;;;;6.60;3.42;;;;;;;;;;5010423;28;20402;-76
2021/08/14 02:17:22;;;;;;;6.90;3.00;;;;;;;;;;5011504;28;20520;-74
2021/08/14 02:19:47;;;;;;;7.57;3.80;;;;;;;;;;5011588;28;20092;-74
2021/08/14 02:22:13;;;;;;;11.98;3.38;;;;;;;;;;5011391;28;20036;-73
2021/08/14 02:24:38;;;;;;;7.47;3.45;;;;;;;;;;5011650;28;20441;-75
2021/08/14 02:27:04;;;;;;;7.35;3.38;;;;;;;;;;5010801;28;20026;-75
2021/08/14 02:29:32;;;;;;;7.28;3.35;;;;;;;;;;5010206;28;20485;-73
2021/08/14 02:31:57;;;;;;;7.15;3.75;;;;;;;;;;5010568;28;20033;-74
2021/08/14 02:34:22;;;;;;;7.88;3.60;;;;;;;;;;5011469;28;20022;-74
2021/08/14 02:36:48;;;;;;;10.00;3.90;;;;;;;;;;5011090;28;20026;-74
2021/08/14 02:39:13;;;;;;;6.25;3.60;;;;;;;;;;5010820;28;20029;-73
2021/08/14 02:41:39;;;;;;;7.13;3.40;;;;;;;;;;5010023;28;20068;-75
2021/08/14 02:44:04;;;;;;;7.63;3.40;;;;;;;;;;5009601;28;20026;-75
2021/08/14 02:46:30;;;;;;;7.28;3.60;;;;;;;;;;5011212;28;20109;-74
2021/08/14 02:48:55;;;;;;;8.77;3.97;;;;;;;;;;5010773;28;20030;-74
2021/08/14 02:51:20;;;;;;;10.90;4.28;;;;;;;;;;5011564;28;20335;-74
2021/08/14 02:53:46;;;;;;;9.48;3.90;;;;;;;;;;5010666;28;20025;-74
2021/08/14 02:56:12;;;;;;;10.70;4.22;;;;;;;;;;5010906;28;20053;-74
2021/08/14 02:58:37;;;;;;;7.82;4.07;;;;;;;;;;5009664;28;20101;-74
2021/08/14 03:01:03;;;;;;;6.90;4.03;;;;;;;;;;5012121;28;20032;-74
2021/08/14 03:03:29;;;;;;;12.13;4.70;;;;;;;;;;5010757;28;20102;-74
2021/08/14 03:05:55;;;;;;;9.20;3.60;;;;;;;;;;5010211;28;20050;-74
2021/08/14 03:08:21;;;;;;;6.65;3.50;;;;;;;;;;5009007;28;20041;-74
2021/08/14 03:10:46;;;;;;;10.82;3.80;;;;;;;;;;5010136;28;20055;-73
2021/08/14 03:13:13;;;;;;;9.27;3.67;;;;;;;;;;5010467;28;20052;-75
2021/08/14 03:15:39;;;;;;;11.57;4.07;;;;;;;;;;5010368;28;20076;-74
2021/08/14 03:18:05;;;;;;;7.35;3.72;;;;;;;;;;5018871;28;20037;-74
2021/08/14 03:20:31;;;;;;;8.27;3.75;;;;;;;;;;4992615;28;20089;-74
2021/08/14 03:22:56;;;;;;;5.25;3.47;;;;;;;;;;5008995;28;20054;-74
2021/08/14 03:25:22;;;;;;;9.55;4.03;;;;;;;;;;5009862;28;20416;-74
2021/08/14 03:27:48;;;;;;;6.55;3.50;;;;;;;;;;5010611;28;20025;-74
2021/08/14 03:30:17;;;;;;;6.85;4.05;;;;;;;;;;5010631;28;20050;-74
2021/08/14 03:32:43;;;;;;;8.52;3.90;;;;;;;;;;5009938;28;20044;-74
2021/08/14 03:35:10;;;;;;;8.90;3.65;;;;;;;;;;5010427;28;20441;-74
2021/08/14 03:37:36;;;;;;;7.80;3.47;;;;;;;;;;5009969;28;20025;-74
2021/08/14 03:40:01;;;;;;;9.05;4.00;;;;;;;;;;5010187;28;20413;-74
2021/08/14 03:42:27;;;;;;;6.97;3.85;;;;;;;;;;5010530;28;20049;-74
2021/08/14 03:44:53;;;;;;;7.50;3.50;;;;;;;;;;5011000;28;20022;-74
2021/08/14 03:47:18;;;;;;;7.97;3.80;;;;;;;;;;5009559;28;20097;-73
2021/08/14 03:49:45;;;;;;;6.97;3.50;;;;;;;;;;5010201;28;20153;-73
2021/08/14 03:52:10;;;;;;;9.40;3.80;;;;;;;;;;5010123;28;20034;-74
2021/08/14 03:54:36;;;;;;;11.82;4.32;;;;;;;;;;5010514;28;20051;-74
2021/08/14 03:57:01;;;;;;;8.88;3.47;;;;;;;;;;5009995;28;20022;-74
2021/08/14 03:59:27;;;;;;;9.43;3.45;;;;;;;;;;5009995;28;20100;-75
2021/08/14 04:01:52;;;;;;;7.88;3.70;;;;;;;;;;5008669;28;20025;-74
2021/08/14 04:04:19;;;;;;;5.72;3.42;;;;;;;;;;5010051;28;20558;-75
2021/08/14 04:06:45;;;;;;;6.38;3.70;;;;;;;;;;5009643;28;20037;-74
2021/08/14 04:09:10;;;;;;;9.02;3.15;;;;;;;;;;5010130;28;20491;-76
2021/08/14 04:11:40;;;;;;;6.82;3.40;;;;;;;;;;5008633;28;20021;-74
2021/08/14 04:14:06;;;;;;;7.10;3.50;;;;;;;;;;5004064;28;20556;-75
2021/08/14 04:16:31;;;;;;;10.13;3.47;;;;;;;;;;5005246;28;20061;-74
2021/08/14 04:18:56;;;;;;;10.20;3.63;;;;;;;;;;5009919;28;20466;-74
2021/08/14 04:21:22;;;;;;;9.10;3.42;;;;;;;;;;5008984;28;20026;-74
2021/08/14 04:23:47;;;;;;;6.05;3.55;;;;;;;;;;5008356;28;20021;-74
2021/08/14 04:26:13;;;;;;;9.32;3.60;;;;;;;;;;5009768;28;20478;-74
2021/08/14 04:28:38;;;;;;;9.13;3.78;;;;;;;;;;5009440;28;20370;-74
2021/08/14 04:31:03;;;;;;;7.55;3.35;;;;;;;;;;5009360;28;20104;-74
2021/08/14 04:33:29;;;;;;;8.05;3.50;;;;;;;;;;5009700;28;20037;-74
2021/08/14 04:35:54;;;;;;;8.43;3.58;;;;;;;;;;5010311;28;20045;-74
2021/08/14 04:38:20;;;;;;;10.45;3.80;;;;;;;;;;5011414;28;20470;-74
2021/08/14 04:40:45;;;;;;;7.13;3.40;;;;;;;;;;5012383;28;20034;-74
2021/08/14 04:43:11;;;;;;;6.35;3.58;;;;;;;;;;5012607;28;20113;-74
2021/08/14 04:45:37;;;;;;;7.97;3.40;;;;;;;;;;5014771;28;20033;-75
2021/08/14 04:48:02;;;;;;;7.78;3.35;;;;;;;;;;5006657;28;20075;-75
2021/08/14 04:50:27;;;;;;;8.75;2.88;;;;;;;;;;5021719;28;20354;-75
2021/08/14 04:52:53;;;;;;;8.00;3.38;;;;;;;;;;5012889;28;20053;-74
2021/08/14 04:55:18;;;;;;;7.90;3.25;;;;;;;;;;5014091;28;20033;-75
2021/08/14 04:57:44;;;;;;;5.35;2.88;;;;;;;;;;5004537;28;20034;-74
2021/08/14 05:00:10;;;;;;;8.02;2.92;;;;;;;;;;5012148;28;20030;-74
2021/08/14 05:02:35;;;;;;;8.10;3.47;;;;;;;;;;5005895;28;20045;-74
2021/08/14 05:05:01;;;;;;;7.13;2.95;;;;;;;;;;5013824;28;20038;-74
2021/08/14 05:07:27;;;;;;;7.57;3.03;;;;;;;;;;5014224;28;20418;-74
2021/08/14 05:09:53;;;;;;;7.22;2.75;;;;;;;;;;5012805;28;20025;-74
2021/08/14 05:12:18;;;;;;;8.82;2.80;;;;;;;;;;5013917;28;20571;-74
2021/08/14 05:14:44;;;;;;;7.45;3.30;;;;;;;;;;5013720;28;20030;-74
2021/08/14 05:17:09;;;;;;;8.70;2.55;;;;;;;;;;5013704;28;20041;-74
2021/08/14 05:19:35;;;;;;;7.82;3.17;;;;;;;;;;5010925;28;20021;-74
2021/08/14 05:22:01;;;;;;;6.88;2.60;;;;;;;;;;4998570;28;20041;-74
2021/08/14 05:24:26;;;;;;;8.13;2.67;;;;;;;;;;5013559;28;20032;-75
2021/08/14 05:26:52;;;;;;;9.82;2.70;;;;;;;;;;5012144;28;20076;-75
2021/08/14 05:29:18;;;;;;;9.10;2.65;;;;;;;;;;5008996;28;20025;-75
2021/08/14 05:31:44;;;;;;;8.57;2.88;;;;;;;;;;5013439;28;20025;-75
2021/08/14 05:34:09;;;;;;;9.40;2.60;;;;;;;;;;5013657;28;20045;-74
2021/08/14 05:36:35;;;;;;;7.82;2.70;;;;;;;;;;5009447;28;20045;-75
2021/08/14 05:39:02;;;;;;;7.07;2.90;;;;;;;;;;5007512;28;20117;-75
2021/08/14 05:41:27;;;;;;;7.35;2.67;;;;;;;;;;5013909;28;20104;-74
2021/08/14 05:43:52;;;;;;;8.85;2.67;;;;;;;;;;5013402;28;20723;-73
2021/08/14 05:46:18;;;;;;;6.30;2.75;;;;;;;;;;5013240;28;20076;-75
2021/08/14 05:48:43;;;;;;;5.93;2.80;;;;;;;;;;5012227;28;20382;-75
2021/08/14 05:51:12;;;;;;;8.50;2.85;;;;;;;;;;5003911;28;20133;-73
2021/08/14 05:53:38;;;;;;;6.88;2.70;;;;;;;;;;5009539;28;20053;-75
2021/08/14 05:56:04;;;;;;;7.88;2.72;;;;;;;;;;5013164;28;20053;-75
2021/08/14 05:58:29;;;;;;;9.80;2.85;;;;;;;;;;5013254;28;20033;-75
2021/08/14 06:00:55;;;;;;;6.72;2.40;;;;;;;;;;5004196;28;20381;-74
2021/08/14 06:03:20;;;;;;;8.13;2.70;;;;;;;;;;5012606;28;20060;-74
2021/08/14 06:05:46;;;;;;;10.50;2.88;;;;;;;;;;5012090;28;20433;-73
2021/08/14 06:08:12;;;;;;;11.70;3.42;;;;;;;;;;5012220;28;20030;-74
2021/08/14 06:10:37;;;;;;;8.18;2.55;;;;;;;;;;5011858;28;20105;-73
2021/08/14 06:13:03;;;;;;;8.63;3.05;;;;;;;;;;5011904;28;20037;-72
2021/08/14 06:15:29;;;;;;;8.77;2.40;;;;;;;;;;5012341;28;20034;-75
2021/08/14 06:17:54;;;;;;;12.27;2.63;;;;;;;;;;5011846;28;20026;-74
2021/08/14 06:20:20;;;;;;;9.48;2.50;;;;;;;;;;5012333;28;20026;-74
2021/08/14 06:22:45;;;;;;;14.90;2.72;;;;;;;;;;5011822;28;20099;-73
2021/08/14 06:25:12;;;;;;;8.07;2.75;;;;;;;;;;5010254;28;20057;-74
2021/08/14 06:27:37;;;;;;;10.95;2.67;;;;;;;;;;5011245;28;20247;-72
2021/08/14 06:30:05;;;;;;;6.72;2.38;;;;;;;;;;5011347;28;20041;-72
2021/08/14 06:32:31;;;;;;;8.77;2.90;;;;;;;;;;5011579;28;20029;-73
2021/08/14 06:34:57;;;;;;;9.05;2.42;;;;;;;;;;5011476;28;20044;-74
2021/08/14 06:37:22;;;;;;;7.85;2.55;;;;;;;;;;5019368;28;20109;-75
2021/08/14 06:39:48;;;;;;;12.48;2.80;;;;;;;;;;5011841;28;20026;-75
2021/08/14 06:42:13;;;;;;;5.90;2.42;;;;;;;;;;5011635;28;20033;-75
2021/08/14 06:44:39;;;;;;;13.52;2.55;;;;;;;;;;5012010;28;20017;-75
2021/08/14 06:47:04;;;;;;;10.63;3.30;;;;;;;;;;5011484;28;20033;-75
2021/08/14 06:49:30;;;;;;;11.13;2.30;;;;;;;;;;5011434;28;20381;-73
2021/08/14 06:51:55;;;;;;;8.23;2.88;;;;;;;;;;5011481;28;20084;-73
2021/08/14 06:54:21;;;;;;;7.70;2.35;;;;;;;;;;5011619;28;20109;-74
2021/08/14 06:56:46;;;;;;;11.02;2.72;;;;;;;;;;5011974;28;20096;-74
2021/08/14 06:59:12;;;;;;;9.00;2.70;;;;;;;;;;5011778;28;20028;-75
2021/08/14 07:01:37;;;;;;;13.43;2.97;;;;;;;;;;5011988;28;20040;-74
2021/08/14 07:04:03;;;;;;;6.97;2.83;;;;;;;;;;5003027;28;20382;-74
2021/08/14 07:06:28;;;;;;;9.38;2.50;;;;;;;;;;5011233;28;20065;-73
2021/08/14 07:08:54;;;;;;;8.32;2.67;;;;;;;;;;4998842;28;20096;-74
2021/08/14 07:11:20;;;;;;;12.30;2.75;;;;;;;;;;5012765;28;20038;-73
2021/08/14 07:13:47;;;;;;;10.38;2.80;;;;;;;;;;5011591;28;20217;-73
2021/08/14 07:16:13;;;;;;;10.57;2.90;;;;;;;;;;4993542;28;20072;-73
2021/08/14 07:18:38;;;;;;;11.05;2.72;;;;;;;;;;5011821;28;20088;-73
2021/08/14 07:21:04;;;;;;;8.88;3.17;;;;;;;;;;5011409;28;20033;-74
2021/08/14 07:23:30;;;;;;;9.10;3.13;;;;;;;;;;4994327;28;20033;-74
2021/08/14 07:25:55;;;;;;;7.80;3.10;;;;;;;;;;5011857;28;20457;-75
2021/08/14 07:28:21;;;;;;;11.93;3.00;;;;;;;;;;5012081;28;20024;-73
2021/08/14 07:30:47;;;;;;;14.35;3.00;;;;;;;;;;5010575;28;20022;-74
2021/08/14 07:33:14;;;;;;;12.02;3.08;;;;;;;;;;5014364;28;20026;-74
2021/08/14 07:35:40;;;;;;;10.70;2.88;;;;;;;;;;5024779;28;20033;-74
2021/08/14 07:38:06;;;;;;;11.77;2.72;;;;;;;;;;5011338;28;20030;-74
2021/08/14 07:40:31;;;;;;;7.82;2.60;;;;;;;;;;5010574;28;20026;-74
2021/08/14 07:42:57;;;;;;;12.75;3.50;;;;;;;;;;5024365;28;20227;-75
2021/08/14 07:45:23;;;;;;;10.60;3.63;;;;;;;;;;5010030;28;20025;-74
2021/08/14 07:47:50;;;;;;;14.43;3.05;;;;;;;;;;5011108;28;20145;-75
2021/08/14 07:50:24;;;;;;;13.98;2.95;;;;;;;;;;5011719;28;20767;-73
2021/08/14 07:52:51;;;;;;;11.80;2.75;;;;;;;;;;5010218;28;20018;-75
2021/08/14 07:55:17;;;;;;;10.02;3.17;;;;;;;;;;5011187;28;20068;-73
2021/08/14 07:57:43;;;;;;;9.55;3.10;;;;;;;;;;5001264;28;20058;-73
2021/08/14 08:00:13;;;;;;;10.60;2.97;;;;;;;;;;5010848;28;20032;-74
2021/08/14 08:02:38;;;;;;;10.88;3.42;;;;;;;;;;5011634;28;20038;-74
2021/08/14 08:05:06;;;;;;;14.45;2.92;;;;;;;;;;5010386;28;20053;-74
2021/08/14 08:07:31;;;;;;;9.50;2.80;;;;;;;;;;5011531;28;20053;-74
2021/08/14 08:09:57;;;;;;;10.43;3.33;;;;;;;;;;5000584;28;20062;-74
2021/08/14 08:12:23;;;;;;;10.63;2.70;;;;;;;;;;5015569;28;20068;-74
2021/08/14 08:14:48;;;;;;;10.68;3.38;;;;;;;;;;5015220;28;20493;-74
2021/08/14 08:17:14;;;;;;;10.50;2.78;;;;;;;;;;5014933;28;20038;-74
2021/08/14 08:19:39;;;;;;;11.18;2.83;;;;;;;;;;4997500;28;20117;-73
2021/08/14 08:22:05;;;;;;;10.23;2.60;;;;;;;;;;5014946;28;20049;-74
2021/08/14 08:24:30;;;;;;;8.45;2.30;;;;;;;;;;5014810;28;20431;-73
2021/08/14 08:26:56;;;;;;;10.48;3.20;;;;;;;;;;5014729;28;20030;-74
2021/08/14 08:29:21;;;;;;;11.40;2.72;;;;;;;;;;5014790;28;20033;-73
2021/08/14 08:31:47;;;;;;;13.48;3.15;;;;;;;;;;4997620;28;20026;-73
2021/08/14 08:34:13;;;;;;;14.05;3.42;;;;;;;;;;5014635;28;20176;-73
2021/08/14 08:36:39;;;;;;;10.95;3.38;;;;;;;;;;5014772;28;20026;-73
2021/08/14 08:39:04;;;;;;;9.90;2.50;;;;;;;;;;5014379;28;20030;-73
2021/08/14 08:41:31;;;;;;;7.18;2.55;;;;;;;;;;5014446;28;20026;-73
2021/08/14 08:43:57;;;;;;;8.73;2.60;;;;;;;;;;5014705;28;20409;-73
2021/08/14 08:46:23;;;;;;;7.93;3.00;;;;;;;;;;5014190;28;20044;-73
2021/08/14 08:48:50;;;;;;;9.68;2.75;;;;;;;;;;5014549;28;20036;-72
2021/08/14 08:51:22;;;;;;;10.95;2.83;;;;;;;;;;5014669;28;20100;-75
2021/08/14 08:53:48;;;;;;;10.57;2.85;;;;;;;;;;5014782;28;20032;-73
2021/08/14 08:56:13;;;;;;;9.60;3.08;;;;;;;;;;5014254;28;20030;-73
2021/08/14 08:58:39;;;;;;;18.80;3.28;;;;;;;;;;5013915;28;20116;-74
2021/08/14 09:01:04;;;;;;;7.32;2.38;;;;;;;;;;5014274;28;20072;-74
2021/08/14 09:03:31;;;;;;;9.02;2.55;;;;;;;;;;5014287;28;20652;-74
2021/08/14 09:05:56;;;;;;;7.05;2.83;;;;;;;;;;5014185;28;20049;-73
2021/08/14 09:08:22;;;;;;;9.50;2.63;;;;;;;;;;5013859;28;20034;-73
2021/08/14 09:10:50;;;;;;;53.67;7.03;;;;;;;;;;5014191;28;20026;-75
2021/08/14 09:13:20;;;;;;;13.52;3.30;;;;;;;;;;4996299;28;20084;-73
2021/08/14 09:15:47;;;;;;;10.35;2.50;;;;;;;;;;5013931;28;20032;-74
2021/08/14 09:18:15;;;;;;;11.75;2.80;;;;;;;;;;5014200;28;20041;-73
2021/08/14 09:20:54;;;;;;;10.55;2.90;;;;;;;;;;5014179;28;20068;-74
2021/08/14 09:23:21;;;;;;;12.52;2.88;;;;;;;;;;5012918;28;20032;-73
2021/08/14 09:25:49;;;;;;;10.52;3.17;;;;;;;;;;5013875;28;20104;-74
2021/08/14 09:28:16;;;;;;;8.55;2.50;;;;;;;;;;5014037;28;20026;-74
2021/08/14 09:30:47;;;;;;;9.63;2.97;;;;;;;;;;5013944;28;20022;-75
2021/08/14 09:33:15;;;;;;;8.88;3.20;;;;;;;;;;5013885;28;20032;-74
2021/08/14 09:35:42;;;;;;;14.18;2.95;;;;;;;;;;5013663;28;20033;-74
2021/08/14 09:38:11;;;;;;;7.50;2.42;;;;;;;;;;5013553;28;20025;-74
2021/08/14 09:40:46;;;;;;;12.25;3.10;;;;;;;;;;5013522;28;20014;-74
2021/08/14 09:43:32;;;;;;;13.80;3.25;;;;;;;;;;5013265;28;20029;-73
2021/08/14 09:45:57;;;;;;;6.90;2.60;;;;;;;;;;5013664;28;20030;-73
2021/08/14 09:48:25;;;;;;;13.50;3.45;;;;;;;;;;5013721;28;20044;-75
2021/08/14 09:50:52;;;;;;;8.25;2.90;;;;;;;;;;5013121;28;20026;-73
2021/08/14 09:53:21;;;;;;;13.60;2.60;;;;;;;;;;5013332;28;20034;-73
2021/08/14 09:55:50;;;;;;;11.93;2.97;;;;;;;;;;5013065;28;20663;-74
2021/08/14 09:58:20;;;;;;;12.73;2.90;;;;;;;;;;5012576;28;20528;-75
2021/08/14 10:00:49;;;;;;;8.73;2.90;;;;;;;;;;5013382;28;20049;-74
2021/08/14 10:03:16;;;;;;;8.15;3.38;;;;;;;;;;5013355;28;20108;-73
2021/08/14 10:05:43;;;;;;;10.75;3.47;;;;;;;;;;5008076;28;20060;-74
2021/08/14 10:08:09;;;;;;;9.93;2.60;;;;;;;;;;4994145;28;20026;-73
2021/08/14 10:10:35;;;;;;;9.23;2.47;;;;;;;;;;5013404;28;20116;-74
2021/08/14 10:13:01;;;;;;;10.50;2.88;;;;;;;;;;5013265;28;20431;-73
2021/08/14 10:15:27;;;;;;;10.18;2.95;;;;;;;;;;5012869;28;20030;-73
2021/08/14 10:17:54;;;;;;;11.38;2.42;;;;;;;;;;5013283;28;20034;-74
2021/08/14 10:20:20;;;;;;;10.68;2.83;;;;;;;;;;5012463;28;20022;-74
2021/08/14 10:22:46;;;;;;;9.18;2.63;;;;;;;;;;5013022;28;20064;-73
2021/08/14 10:25:18;;;;;;;10.70;2.30;;;;;;;;;;5012673;28;20054;-74
2021/08/14 10:28:15;;;;;;;11.82;2.30;;;;;;;;;;4993487;28;20359;-75
2021/08/14 10:30:50;;;;;;;13.55;2.70;;;;;;;;;;4988883;28;20046;-74
2021/08/14 10:33:45;;;;;;;9.52;2.40;;;;;;;;;;5003199;28;20033;-75
2021/08/14 10:36:17;;;;;;;13.30;2.45;;;;;;;;;;4995190;28;20405;-74
2021/08/14 10:38:43;;;;;;;10.13;2.75;;;;;;;;;;5012443;28;20017;-74
2021/08/14 10:41:10;;;;;;;9.93;2.65;;;;;;;;;;5012239;28;20128;-74
2021/08/14 10:43:54;;;;;;;13.70;2.60;;;;;;;;;;5012637;28;20056;-75
2021/08/14 10:46:31;;;;;;;9.63;2.45;;;;;;;;;;5012550;28;20164;-73
2021/08/14 10:48:58;;;;;;;10.00;2.78;;;;;;;;;;5012420;28;20025;-74
2021/08/14 10:51:46;;;;;;;8.90;2.10;;;;;;;;;;5012256;28;20033;-74
2021/08/14 10:54:12;;;;;;;11.63;2.50;;;;;;;;;;5011563;28;20454;-74
2021/08/14 10:56:52;;;;;;;12.18;2.20;;;;;;;;;;5012693;28;20052;-74
2021/08/14 10:59:38;;;;;;;8.40;2.13;;;;;;;;;;5011613;28;20026;-73
2021/08/14 11:02:07;;;;;;;6.85;2.30;;;;;;;;;;5012250;28;20429;-74
2021/08/14 11:04:39;;;;;;;12.52;2.30;;;;;;;;;;4994013;28;20046;-74
2021/08/14 11:07:17;;;;;;;6.68;2.17;;;;;;;;;;5012227;28;20206;-74
2021/08/14 11:09:45;;;;;;;7.78;2.28;;;;;;;;;;5009864;28;20041;-76
2021/08/14 11:12:11;;;;;;;12.13;2.78;;;;;;;;;;5011375;28;20025;-75
2021/08/14 11:14:47;;;;;;;9.68;2.08;;;;;;;;;;4999174;28;20080;-74
2021/08/14 11:17:14;;;;;;;6.57;1.95;;;;;;;;;;4992446;28;20060;-74
2021/08/14 11:19:50;;;;;;;7.65;2.05;;;;;;;;;;5011761;28;20025;-74
2021/08/14 11:22:42;;;;;;;75.10;4.53;;;;;;;;;;5011875;28;20030;-75
2021/08/14 11:25:27;;;;;;;9.80;2.50;;;;;;;;;;5000684;28;20042;-74
2021/08/14 11:27:59;;;;;;;10.38;2.00;;;;;;;;;;5011738;28;20029;-73
2021/08/14 11:30:28;;;;;;;6.72;1.88;;;;;;;;;;5011473;28;20034;-75
2021/08/14 11:32:55;;;;;;;12.98;2.17;;;;;;;;;;5011742;28;20026;-74
2021/08/14 11:35:24;;;;;;;11.07;2.42;;;;;;;;;;5008280;28;20030;-74
2021/08/14 11:37:55;;;;;;;13.52;2.63;;;;;;;;;;5012091;28;20026;-74
2021/08/14 11:40:24;;;;;;;10.95;2.17;;;;;;;;;;5010672;28;20022;-74
2021/08/14 11:43:03;;;;;;;12.15;3.03;;;;;;;;;;5015560;28;20028;-74
2021/08/14 11:45:30;;;;;;;7.93;1.90;;;;;;;;;;5010939;28;20042;-75
2021/08/14 11:48:06;;;;;;;11.93;2.28;;;;;;;;;;5015285;28;20087;-74
2021/08/14 11:50:49;;;;;;;8.23;2.25;;;;;;;;;;5015641;28;20021;-74
2021/08/14 11:53:28;;;;;;;7.50;2.05;;;;;;;;;;5015160;28;20099;-73
2021/08/14 11:56:05;;;;;;;8.40;2.00;;;;;;;;;;5012168;28;20068;-74
2021/08/14 11:58:31;;;;;;;9.23;1.83;;;;;;;;;;5015453;28;20026;-72
2021/08/14 12:00:57;;;;;;;12.52;2.17;;;;;;;;;;5001521;28;20031;-72
2021/08/14 12:03:24;;;;;;;12.77;2.30;;;;;;;;;;5011391;28;20026;-72
2021/08/14 12:05:50;;;;;;;11.10;2.78;;;;;;;;;;5014575;28;20042;-73
2021/08/14 12:08:41;;;;;;;8.88;2.25;;;;;;;;;;5014302;28;20374;-72
2021/08/14 12:11:10;;;;;;;11.93;2.30;;;;;;;;;;4997015;28;20025;-72
2021/08/14 12:13:36;;;;;;;8.27;1.83;;;;;;;;;;5014194;28;20030;-73
2021/08/14 12:16:13;;;;;;;8.10;1.98;;;;;;;;;;5014208;28;20049;-73
2021/08/14 12:18:39;;;;;;;9.00;2.00;;;;;;;;;;5014024;28;20101;-73
2021/08/14 12:21:07;;;;;;;9.20;2.10;;;;;;;;;;5014245;28;20165;-73
2021/08/14 12:23:35;;;;;;;8.70;2.00;;;;;;;;;;5012731;28;20061;-73
2021/08/14 12:26:22;;;;;;;7.43;1.70;;;;;;;;;;5014273;28;20030;-72
2021/08/14 12:28:59;;;;;;;7.32;2.53;;;;;;;;;;5014076;28;20105;-73
2021/08/14 12:31:24;;;;;;;6.88;2.05;;;;;;;;;;5013712;28;20375;-73
2021/08/14 12:33:52;;;;;;;8.38;1.98;;;;;;;;;;5013537;28;20137;-73
2021/08/14 12:36:38;;;;;;;9.88;1.90;;;;;;;;;;5013800;28;20108;-72
2021/08/14 12:39:06;;;;;;;10.27;2.33;;;;;;;;;;4996242;28;20033;-73
2021/08/14 12:41:37;;;;;;;10.05;2.63;;;;;;;;;;4995736;28;20026;-73
2021/08/14 12:44:03;;;;;;;12.27;2.30;;;;;;;;;;5013768;28;20038;-73
2021/08/14 12:46:30;;;;;;;11.52;2.70;;;;;;;;;;5013732;28;20045;-73
2021/08/14 12:49:24;;;;;;;12.27;2.72;;;;;;;;;;5014779;28;20528;-73
2021/08/14 12:52:02;;;;;;;90.90;6.30;;;;;;;;;;5014165;28;20050;-73
2021/08/14 12:54:32;;;;;;;7.05;1.83;;;;;;;;;;5014339;28;20030;-73
2021/08/14 12:57:06;;;;;;;8.48;2.10;;;;;;;;;;5014441;28;20037;-73
2021/08/14 12:59:34;;;;;;;11.00;2.25;;;;;;;;;;5014147;28;20049;-73
2021/08/14 13:02:04;;;;;;;9.70;2.20;;;;;;;;;;5014399;28;20179;-73
2021/08/14 13:04:31;;;;;;;6.78;1.90;;;;;;;;;;5013868;28;20500;-73
2021/08/14 13:06:56;;;;;;;8.25;1.90;;;;;;;;;;5014185;28;20029;-72
2021/08/14 13:09:22;;;;;;;9.35;2.00;;;;;;;;;;5014512;28;20072;-73
2021/08/14 13:11:48;;;;;;;9.80;2.28;;;;;;;;;;5014076;28;20026;-73
2021/08/14 13:14:13;;;;;;;10.25;2.40;;;;;;;;;;4996308;28;20025;-73
2021/08/14 13:16:39;;;;;;;7.97;1.90;;;;;;;;;;5014181;28;20091;-73
2021/08/14 13:19:06;;;;;;;8.05;1.98;;;;;;;;;;5014084;28;20481;-72
2021/08/14 13:21:31;;;;;;;12.48;2.58;;;;;;;;;;5014180;28;20108;-73
2021/08/14 13:23:57;;;;;;;6.07;1.88;;;;;;;;;;5013796;28;20105;-74
2021/08/14 13:26:22;;;;;;;139.50;27.25;;;;;;;;;;5014117;28;20370;-73
2021/08/14 13:28:48;;;;;;;5.75;1.70;;;;;;;;;;5013480;28;20505;-73
2021/08/14 13:31:14;;;;;;;7.88;2.38;;;;;;;;;;5013976;28;20045;-73
2021/08/14 13:33:39;;;;;;;7.35;1.80;;;;;;;;;;5013441;28;20056;-73
2021/08/14 13:36:05;;;;;;;8.63;1.98;;;;;;;;;;5012460;28;20057;-73
2021/08/14 13:38:32;;;;;;;9.25;2.88;;;;;;;;;;5012725;28;20473;-73
2021/08/14 13:40:58;;;;;;;5.28;1.70;;;;;;;;;;5014049;28;20091;-74
2021/08/14 13:43:24;;;;;;;8.85;2.00;;;;;;;;;;5013126;28;20034;-73
2021/08/14 13:45:49;;;;;;;8.70;2.08;;;;;;;;;;5013403;28;20041;-73
2021/08/14 13:48:15;;;;;;;7.22;1.73;;;;;;;;;;5013731;28;20366;-73
2021/08/14 13:50:42;;;;;;;9.57;2.30;;;;;;;;;;4993100;28;20034;-73
2021/08/14 13:53:08;;;;;;;7.38;1.70;;;;;;;;;;4998236;28;20079;-72
2021/08/14 13:55:33;;;;;;;9.77;2.60;;;;;;;;;;5012955;28;20014;-73
2021/08/14 13:57:59;;;;;;;9.75;1.90;;;;;;;;;;5013615;28;20035;-73
2021/08/14 14:00:24;;;;;;;7.85;1.60;;;;;;;;;;5013181;28;20022;-73
2021/08/14 14:02:50;;;;;;;7.65;1.90;;;;;;;;;;5012275;28;20030;-73
2021/08/14 14:05:16;;;;;;;8.43;1.90;;;;;;;;;;5012274;28;20352;-74
2021/08/14 14:07:44;;;;;;;9.02;1.88;;;;;;;;;;5011848;28;20474;-73
2021/08/14 14:10:10;;;;;;;8.43;2.03;;;;;;;;;;5011968;28;20026;-74
2021/08/14 14:12:36;;;;;;;10.27;2.67;;;;;;;;;;5012008;28;20040;-73
2021/08/14 14:15:02;;;;;;;6.90;2.15;;;;;;;;;;5011850;28;20038;-73
2021/08/14 14:17:27;;;;;;;6.65;1.90;;;;;;;;;;5011934;28;20108;-73
2021/08/14 14:19:53;;;;;;;10.13;2.63;;;;;;;;;;5010120;28;20466;-73
2021/08/14 14:22:18;;;;;;;11.98;1.77;;;;;;;;;;5011488;28;20025;-73
2021/08/14 14:24:44;;;;;;;10.65;2.17;;;;;;;;;;5011996;28;20026;-73
2021/08/14 14:27:10;;;;;;;7.72;1.90;;;;;;;;;;5012779;28;20429;-74
2021/08/14 14:29:35;;;;;;;7.53;1.90;;;;;;;;;;5012318;28;20022;-73
2021/08/14 14:32:03;;;;;;;5.97;1.52;;;;;;;;;;5012883;28;20025;-74
2021/08/14 14:34:28;;;;;;;9.63;2.17;;;;;;;;;;5011998;28;20425;-73
2021/08/14 14:36:55;;;;;;;7.80;2.08;;;;;;;;;;5012612;28;20055;-72
2021/08/14 14:39:21;;;;;;;8.63;1.95;;;;;;;;;;5012521;28;20158;-73